Time;durP1;ratioP1;P1;durP2;ratioP2;P2;SDS_P1;SDS_P2;PMS_P1;PMS_P2;Temp;Humidity;BMP_temperature;BMP_pressure;BME280_temperature;BME280_humidity;BME280_pressure;Samples;Min_cycle;Max_cycle;Signal;HPM_P1;HPM_P2
2021/12/28 00:02:24;;;;;;;19.33;2.42;;;;;;;7.06;98.47;99475.94;4994188;28;104467;-42
2021/12/28 00:04:49;;;;;;;2.58;1.90;;;;;;;7.12;98.22;99473.66;4994137;28;109291;-42
2021/12/28 00:07:15;;;;;;;3.55;2.20;;;;;;;7.06;98.32;99462.47;4993869;28;100493;-42
2021/12/28 00:09:40;;;;;;;10.07;2.25;;;;;;;7.11;98.13;99469.25;4994685;28;96746;-42
2021/12/28 00:12:06;;;;;;;7.63;2.78;;;;;;;7.05;98.07;99460.75;4993988;28;108126;-42
2021/12/28 00:14:36;;;;;;;7.97;2.40;;;;;;;7.14;98.04;99469.03;4994302;28;97767;-42
2021/12/28 00:19:46;;;;;;;1.98;1.17;;;;;;;7.16;98.45;99475.19;4995093;28;96439;-42
2021/12/28 00:22:11;;;;;;;14.57;3.40;;;;;;;7.08;98.35;99460.53;4996642;28;109163;-42
2021/12/28 00:24:37;;;;;;;4.22;1.35;;;;;;;7.20;98.56;99476.69;4998027;28;97036;-42
2021/12/28 00:27:04;;;;;;;6.63;1.85;;;;;;;7.10;98.40;99454.06;4996880;28;96515;-42
2021/12/28 00:29:29;;;;;;;2.90;1.70;;;;;;;7.19;98.40;99468.72;4996277;28;96525;-42
2021/12/28 00:31:54;;;;;;;7.20;1.77;;;;;;;7.18;98.25;99464.31;4997312;28;98030;-42
2021/12/28 00:34:20;;;;;;;4.63;2.28;;;;;;;7.20;98.16;99468.63;4997652;28;97958;-42
2021/12/28 00:36:46;;;;;;;3.83;1.75;;;;;;;7.20;98.26;99465.94;4997922;28;96572;-42
2021/12/28 00:39:11;;;;;;;10.75;1.90;;;;;;;7.21;97.99;99467.63;4997974;28;96718;-42
2021/12/28 00:41:37;;;;;;;13.77;2.72;;;;;;;7.18;97.96;99456.25;4996924;28;110614;-42
2021/12/28 00:44:02;;;;;;;8.32;1.75;;;;;;;7.07;98.11;99440.81;4996829;28;99061;-42
2021/12/28 00:46:27;;;;;;;1.23;0.77;;;;;;;7.10;98.27;99440.59;4997517;28;96555;-42
2021/12/28 00:48:54;;;;;;;12.93;2.13;;;;;;;7.20;98.09;99465.06;4997294;28;116722;-42
2021/12/28 00:51:20;;;;;;;4.38;1.33;;;;;;;7.18;97.93;99457.09;4997404;28;97863;-42
2021/12/28 00:53:45;;;;;;;2.47;1.35;;;;;;;7.16;98.07;99448.25;4997315;28;97354;-42
2021/12/28 00:56:10;;;;;;;3.65;1.50;;;;;;;7.16;97.88;99450.09;4997004;28;96889;-42
2021/12/28 00:58:37;;;;;;;3.75;1.50;;;;;;;7.08;98.23;99434.47;4997708;28;96791;-42
2021/12/28 01:01:03;;;;;;;4.95;2.28;;;;;;;7.18;98.44;99446.31;4995048;28;100879;-42
2021/12/28 01:03:28;;;;;;;6.32;2.50;;;;;;;7.17;98.44;99432.97;4995579;28;100807;-42
2021/12/28 01:05:54;;;;;;;3.00;1.52;;;;;;;7.23;98.16;99436.09;4997332;28;96457;-42
2021/12/28 01:08:19;;;;;;;4.35;1.38;;;;;;;7.20;97.96;99430.06;4997303;28;96786;-42
2021/12/28 01:10:48;;;;;;;3.85;1.63;;;;;;;7.14;98.08;99412.50;4997137;28;97778;-42
2021/12/28 01:13:14;;;;;;;5.68;1.42;;;;;;;7.21;98.16;99418.31;4995744;28;100782;-42
2021/12/28 01:15:40;;;;;;;14.45;2.72;;;;;;;7.15;98.06;99398.06;4995868;28;96511;-42
2021/12/28 01:18:06;;;;;;;2.97;1.60;;;;;;;7.22;97.87;99426.28;4995832;28;96784;-42
2021/12/28 01:20:31;;;;;;;3.40;1.35;;;;;;;7.13;97.66;99404.53;4996443;28;97949;-42
2021/12/28 01:22:57;;;;;;;2.00;1.05;;;;;;;7.25;97.93;99424.34;4996946;28;97432;-42
2021/12/28 01:25:23;;;;;;;2.40;1.30;;;;;;;7.14;97.70;99408.94;4995751;28;96500;-42
2021/12/28 01:28:01;;;;;;;7.13;1.85;;;;;;;7.25;97.92;99424.34;4995378;28;96881;-42
2021/12/28 01:30:28;;;;;;;8.57;1.30;;;;;;;7.06;98.01;99389.78;4996896;28;97483;-42
2021/12/28 01:32:56;;;;;;;6.78;1.90;;;;;;;7.22;97.85;99409.25;4994714;28;100923;-42
2021/12/28 01:35:21;;;;;;;3.13;1.20;;;;;;;7.27;97.85;99417.00;4995530;28;96556;-42
2021/12/28 01:37:48;;;;;;;4.18;1.95;;;;;;;7.18;97.79;99403.25;4996721;28;106289;-42
2021/12/28 01:40:20;;;;;;;2.95;1.92;;;;;;;7.25;97.94;99417.13;4994930;28;101238;-42
2021/12/28 01:42:59;;;;;;;2.15;1.08;;;;;;;7.21;97.80;99418.31;4996489;28;100025;-42
2021/12/28 01:45:33;;;;;;;4.20;1.45;;;;;;;7.24;97.61;99418.09;4994933;28;96611;-42
2021/12/28 01:47:59;;;;;;;5.32;1.52;;;;;;;7.14;97.94;99407.09;4995349;28;96788;-42
2021/12/28 01:50:24;;;;;;;2.05;1.40;;;;;;;7.12;97.86;99398.28;4994982;28;100558;-42
2021/12/28 01:52:50;;;;;;;3.95;1.83;;;;;;;7.24;97.74;99423.47;4995632;28;116376;-42
2021/12/28 01:55:15;;;;;;;1.58;1.35;;;;;;;7.20;97.61;99417.47;4996994;28;96418;-42
2021/12/28 01:57:41;;;;;;;6.50;1.42;;;;;;;7.23;97.66;99419.06;4996759;28;97029;-42
2021/12/28 02:00:07;;;;;;;2.25;0.95;;;;;;;7.11;97.63;99399.25;4995623;28;102122;-42
2021/12/28 02:02:32;;;;;;;3.40;1.30;;;;;;;7.14;97.75;99401.72;4995259;28;100742;-42
2021/12/28 02:04:58;;;;;;;1.58;1.08;;;;;;;7.22;97.90;99418.22;4996697;28;96453;-42
2021/12/28 02:07:23;;;;;;;11.15;1.33;;;;;;;7.09;97.83;99398.50;4996602;28;96718;-42
2021/12/28 02:09:48;;;;;;;3.47;1.95;;;;;;;7.15;97.60;99411.53;4995477;28;107259;-42
2021/12/28 02:12:14;;;;;;;4.05;1.10;;;;;;;7.13;97.48;99413.47;4995171;28;126510;-42
2021/12/28 02:14:44;;;;;;;3.95;1.25;;;;;;;7.07;97.48;99405.81;4996572;28;96485;-42
2021/12/28 02:17:09;;;;;;;3.28;1.48;;;;;;;6.98;97.66;99399.28;4995059;28;96639;-42
2021/12/28 02:19:35;;;;;;;10.00;1.27;;;;;;;7.03;97.63;99398.91;4996016;28;97912;-42
2021/12/28 02:22:00;;;;;;;10.38;1.15;;;;;;;7.02;97.63;99405.28;4995717;28;97908;-42
2021/12/28 02:24:25;;;;;;;2.90;1.85;;;;;;;6.98;97.45;99391.19;4996028;28;103329;-42
2021/12/28 02:26:50;;;;;;;2.92;1.20;;;;;;;7.06;97.56;99405.94;4996022;28;108691;-42
2021/12/28 02:29:16;;;;;;;4.00;1.70;;;;;;;7.00;97.54;99397.31;4995810;28;97857;-42
2021/12/28 02:31:41;;;;;;;3.20;1.35;;;;;;;7.04;97.57;99399.81;4995988;28;97756;-42
2021/12/28 02:34:07;;;;;;;2.13;1.27;;;;;;;7.04;97.61;99403.34;4994042;28;96517;-42
2021/12/28 02:36:32;;;;;;;2.10;1.23;;;;;;;7.04;97.66;99400.66;4996053;28;96695;-42
2021/12/28 02:38:58;;;;;;;8.90;1.17;;;;;;;7.07;97.61;99404.97;4995701;28;97955;-42
2021/12/28 02:41:23;;;;;;;4.55;1.33;;;;;;;6.96;97.55;99390.44;4995699;28;97861;-42
2021/12/28 02:43:49;;;;;;;6.18;1.25;;;;;;;6.96;97.66;99387.75;4994783;28;96441;-42
2021/12/28 02:46:16;;;;;;;2.92;1.17;;;;;;;7.02;97.55;99394.50;4995922;28;96710;-42
2021/12/28 02:48:42;;;;;;;1.92;1.15;;;;;;;7.02;97.68;99394.50;4994016;28;101138;-42
2021/12/28 02:51:14;;;;;;;0.55;0.55;;;;;;;7.07;97.49;99403.13;4994056;28;101018;-42
2021/12/28 02:53:41;;;;;;;8.10;1.33;;;;;;;7.05;97.68;99393.44;4994495;28;96580;-42
2021/12/28 02:56:11;;;;;;;2.92;0.88;;;;;;;7.10;97.43;99399.34;4994215;28;96586;-42
2021/12/28 02:58:40;;;;;;;2.72;1.30;;;;;;;7.05;97.81;99380.84;4994845;28;97893;-42
2021/12/28 03:01:19;;;;;;;1.30;0.77;;;;;;;7.02;97.62;99378.38;4993323;28;100848;-42
2021/12/28 03:03:46;;;;;;;4.82;1.02;;;;;;;7.04;97.34;99375.56;4993978;28;96744;-42
2021/12/28 03:06:16;;;;;;;3.20;0.68;;;;;;;7.15;97.52;99390.00;4994261;28;96912;-42
2021/12/28 03:08:44;;;;;;;3.13;1.25;;;;;;;7.03;97.45;99363.91;4993804;28;100939;-42
2021/12/28 03:11:11;;;;;;;2.60;1.13;;;;;;;7.13;97.89;99373.09;4993742;28;100831;-42
2021/12/28 03:13:39;;;;;;;3.17;1.23;;;;;;;7.15;97.55;99381.94;4994087;28;96715;-42
2021/12/28 03:16:05;;;;;;;6.03;1.10;;;;;;;7.17;99.03;99365.63;4994388;28;96627;-42
2021/12/28 03:18:31;;;;;;;1.02;0.60;;;;;;;7.28;98.24;99371.13;4993482;28;98608;-42
2021/12/28 03:20:58;;;;;;;1.73;0.88;;;;;;;7.29;98.09;99366.59;4994906;28;99807;-42
2021/12/28 03:23:26;;;;;;;4.90;1.40;;;;;;;7.32;98.43;99366.41;4993418;28;96533;-42
2021/12/28 03:25:52;;;;;;;3.58;0.98;;;;;;;7.18;98.44;99338.63;4993885;28;96782;-42
2021/12/28 03:28:29;;;;;;;1.90;0.98;;;;;;;7.34;98.04;99361.72;4993568;28;100947;-42
2021/12/28 03:30:57;;;;;;;5.13;1.15;;;;;;;7.33;98.19;99358.19;4994808;28;97882;-42
2021/12/28 03:33:25;;;;;;;0.35;0.28;;;;;;;7.29;98.17;99347.75;4993753;28;96507;-42
2021/12/28 03:35:50;;;;;;;5.63;0.93;;;;;;;7.28;98.27;99348.72;4993599;28;96796;-42
2021/12/28 03:38:17;;;;;;;4.10;1.48;;;;;;;7.25;98.24;99330.97;4994808;28;97876;-42
2021/12/28 03:40:44;;;;;;;3.63;1.15;;;;;;;7.35;98.30;99342.78;4993601;28;101451;-42
2021/12/28 03:43:10;;;;;;;9.50;1.40;;;;;;;7.28;98.51;99325.34;4993363;28;96501;-42
2021/12/28 03:45:35;;;;;;;2.20;1.13;;;;;;;7.40;98.43;99337.06;4994971;28;96755;-42
2021/12/28 03:48:01;;;;;;;2.28;1.15;;;;;;;7.30;98.12;99323.41;4994063;28;100414;-42
2021/12/28 03:50:26;;;;;;;4.65;0.93;;;;;;;7.36;98.27;99322.06;4994446;28;99117;-42
2021/12/28 03:52:55;;;;;;;1.42;1.10;;;;;;;7.42;98.27;99327.03;4995065;28;96481;-42
2021/12/28 03:55:23;;;;;;;7.38;0.85;;;;;;;7.40;98.11;99324.44;4993135;28;96784;-42
2021/12/28 03:57:49;;;;;;;7.32;0.93;;;;;;;7.46;98.66;99336.63;4992828;28;105382;-42
2021/12/28 04:00:17;;;;;;;3.22;1.27;;;;;;;7.40;98.33;99315.50;4992616;28;101384;-42
2021/12/28 04:02:43;;;;;;;3.72;1.23;;;;;;;7.49;98.17;99325.63;4993268;28;98339;-42
2021/12/28 04:05:09;;;;;;;9.75;1.48;;;;;;;7.48;98.21;99326.56;4993691;28;96765;-42
2021/12/28 04:07:34;;;;;;;5.90;1.17;;;;;;;7.52;98.51;99332.59;4992914;28;100886;-42
2021/12/28 04:10:03;;;;;;;1.90;1.42;;;;;;;7.46;98.33;99317.75;4994062;28;106786;-42
2021/12/28 04:12:29;;;;;;;7.55;1.00;;;;;;;7.46;98.40;99315.06;4993996;28;96679;-42
2021/12/28 04:14:56;;;;;;;5.13;0.88;;;;;;;7.44;98.17;99308.94;4993346;28;96817;-42
2021/12/28 04:17:22;;;;;;;2.25;0.57;;;;;;;7.58;98.29;99337.53;4992970;28;101444;-42
2021/12/28 04:19:47;;;;;;;3.35;0.88;;;;;;;7.51;98.22;99304.81;4992779;28;102536;-42
2021/12/28 04:22:13;;;;;;;1.67;0.80;;;;;;;7.59;98.44;99318.56;4994556;28;96666;-42
2021/12/28 04:24:39;;;;;;;1.35;0.68;;;;;;;7.50;98.31;99311.16;4993120;28;96800;-42
2021/12/28 04:27:04;;;;;;;6.55;0.98;;;;;;;7.58;98.17;99299.81;4992394;28;100895;-42
2021/12/28 04:29:29;;;;;;;13.68;1.42;;;;;;;7.64;98.25;99302.06;4994491;28;98880;-42
2021/12/28 04:31:55;;;;;;;5.00;0.82;;;;;;;7.68;98.40;99314.34;4993426;28;116327;-42
2021/12/28 04:34:20;;;;;;;8.63;1.83;;;;;;;7.61;98.63;99297.75;4993839;28;106671;-42
2021/12/28 04:36:47;;;;;;;10.25;1.73;;;;;;;7.72;98.65;99298.78;4993126;28;110968;-42
2021/12/28 04:39:13;;;;;;;2.13;1.27;;;;;;;7.69;98.50;99285.53;4993874;28;99442;-42
2021/12/28 04:41:38;;;;;;;12.75;1.92;;;;;;;7.72;98.54;99290.69;4994141;28;96654;-42
2021/12/28 04:44:04;;;;;;;6.88;1.92;;;;;;;7.76;98.70;99297.59;4993393;28;107963;-42
2021/12/28 04:46:30;;;;;;;13.07;2.25;;;;;;;7.83;98.98;99299.69;4993797;28;99557;-42
2021/12/28 04:48:57;;;;;;;4.13;1.48;;;;;;;7.86;98.95;99302.19;4992554;28;101020;-42
2021/12/28 04:51:23;;;;;;;3.35;1.38;;;;;;;7.86;99.04;99295.91;4994323;28;96656;-42
2021/12/28 04:53:49;;;;;;;5.88;1.83;;;;;;;7.90;99.06;99305.50;4994975;28;96698;-42
2021/12/28 04:56:15;;;;;;;8.93;1.25;;;;;;;7.82;98.61;99279.13;4991867;28;101223;-42
2021/12/28 04:58:40;;;;;;;2.47;1.35;;;;;;;7.82;98.64;99283.66;4993750;28;97908;-42
2021/12/28 05:01:06;;;;;;;8.77;2.10;;;;;;;7.82;98.93;99283.66;4993228;28;96429;-42
2021/12/28 05:03:31;;;;;;;2.67;0.95;;;;;;;7.82;98.89;99270.19;4994157;28;96771;-42
2021/12/28 05:05:56;;;;;;;5.13;2.13;;;;;;;7.93;99.13;99277.44;4993617;28;105395;-42
2021/12/28 05:08:22;;;;;;;12.75;2.50;;;;;;;7.95;98.65;99273.66;4996683;28;100404;-42
2021/12/28 05:10:49;;;;;;;3.53;1.33;;;;;;;7.98;99.04;99277.94;4997364;28;96609;-43
2021/12/28 05:13:15;;;;;;;7.45;1.75;;;;;;;8.01;98.96;99278.59;4996042;28;96831;-42
2021/12/28 05:15:43;;;;;;;6.18;1.88;;;;;;;8.00;99.06;99265.22;4996720;28;99377;-42
2021/12/28 05:18:09;;;;;;;3.08;1.52;;;;;;;7.98;99.42;99259.06;4996002;28;100934;-42
2021/12/28 05:20:34;;;;;;;3.47;1.60;;;;;;;8.00;99.17;99265.22;4995846;28;96726;-42
2021/12/28 05:23:00;;;;;;;6.32;2.22;;;;;;;8.12;99.23;99268.81;4997005;28;96782;-42
2021/12/28 05:25:25;;;;;;;5.28;1.67;;;;;;;8.05;99.14;99260.31;4996096;28;99245;-42
2021/12/28 05:27:51;;;;;;;1.77;1.13;;;;;;;8.04;99.29;99247.84;4996945;28;98247;-42
2021/12/28 05:30:16;;;;;;;0.88;0.75;;;;;;;8.10;99.57;99266.22;4997299;28;96520;-42
2021/12/28 05:32:41;;;;;;;9.98;1.48;;;;;;;8.13;99.65;99262.41;4996838;28;96757;-42
2021/12/28 05:35:08;;;;;;;1.75;1.17;;;;;;;8.08;99.35;99244.78;4996357;28;121326;-42
2021/12/28 05:37:36;;;;;;;1.15;0.70;;;;;;;8.17;99.52;99253.13;4995240;28;101975;-42
2021/12/28 05:40:05;;;;;;;2.40;0.95;;;;;;;8.18;99.66;99252.16;4995267;28;96840;-42
2021/12/28 05:42:30;;;;;;;13.40;1.80;;;;;;;8.05;99.66;99231.50;4995611;28;96979;-42
2021/12/28 05:44:55;;;;;;;10.02;1.45;;;;;;;8.09;99.71;99233.00;4996229;28;98175;-42
2021/12/28 05:47:21;;;;;;;2.00;1.08;;;;;;;8.06;99.58;99227.00;4996590;28;97827;-42
2021/12/28 05:49:46;;;;;;;5.10;1.50;;;;;;;8.22;99.65;99259.03;4994922;28;96714;-42
2021/12/28 05:52:12;;;;;;;9.23;1.20;;;;;;;8.15;99.65;99237.09;4996597;28;96661;-42
2021/12/28 05:54:37;;;;;;;8.20;1.23;;;;;;;8.15;99.54;99229.00;4996394;28;97162;-42
2021/12/28 05:57:03;;;;;;;1.27;0.98;;;;;;;8.09;99.66;99208.72;4996176;28;97195;-42
2021/12/28 05:59:29;;;;;;;4.32;1.77;;;;;;;8.17;99.72;99218.06;4994927;28;96832;-42
2021/12/28 06:01:55;;;;;;;1.15;0.93;;;;;;;8.25;99.83;99238.06;4996696;28;97796;-42
2021/12/28 06:04:21;;;;;;;2.22;1.13;;;;;;;8.19;99.67;99218.81;4994865;28;100884;-42
2021/12/28 06:06:46;;;;;;;9.10;1.15;;;;;;;8.25;99.76;99227.28;4996563;28;97345;-42
2021/12/28 06:09:12;;;;;;;6.05;2.35;;;;;;;8.27;99.87;99217.25;4995985;28;98262;-42
2021/12/28 06:11:37;;;;;;;6.28;1.40;;;;;;;8.19;99.69;99195.38;4995705;28;111016;-42
2021/12/28 06:14:03;;;;;;;3.65;1.73;;;;;;;8.25;99.49;99196.75;4994829;28;126591;-42
2021/12/28 06:16:28;;;;;;;4.05;1.70;;;;;;;8.27;99.52;99205.56;4996023;28;98288;-42
2021/12/28 06:18:53;;;;;;;8.85;1.48;;;;;;;8.07;99.39;99181.03;4995306;28;114774;-42
2021/12/28 06:21:18;;;;;;;3.30;2.08;;;;;;;8.27;99.72;99206.44;4995403;28;116458;-42
2021/12/28 06:23:44;;;;;;;3.50;2.13;;;;;;;8.27;99.43;99208.25;4995129;28;118392;-42
2021/12/28 06:26:09;;;;;;;3.20;1.70;;;;;;;8.18;99.43;99187.44;4995889;28;97719;-42
2021/12/28 06:28:34;;;;;;;4.20;2.33;;;;;;;8.28;99.72;99210.00;4996228;28;96424;-42
2021/12/28 06:31:06;;;;;;;7.90;2.90;;;;;;;8.29;99.80;99206.31;4995683;28;112094;-42
2021/12/28 06:33:31;;;;;;;9.77;2.97;;;;;;;8.21;99.70;99188.03;4995807;28;97876;-42
2021/12/28 06:35:57;;;;;;;8.05;3.28;;;;;;;8.30;99.45;99202.66;4994940;28;120301;-42
2021/12/28 06:38:22;;;;;;;9.30;3.03;;;;;;;8.23;99.73;99185.22;4995087;28;98659;-42
2021/12/28 06:40:48;;;;;;;7.70;2.63;;;;;;;8.25;99.62;99189.53;4995712;28;96775;-42
2021/12/28 06:43:13;;;;;;;10.00;2.35;;;;;;;8.31;99.79;99204.34;4995045;28;112800;-42
2021/12/28 06:45:39;;;;;;;6.95;3.65;;;;;;;8.24;99.88;99192.34;4993988;28;101049;-42
2021/12/28 06:48:05;;;;;;;2.85;1.95;;;;;;;8.24;99.77;99195.88;4994560;28;96807;-42
2021/12/28 06:50:30;;;;;;;12.98;4.43;;;;;;;8.25;99.93;99194.06;4995969;28;96712;-42
2021/12/28 06:52:55;;;;;;;4.93;2.63;;;;;;;8.34;99.91;99204.09;4995232;28;97425;-42
2021/12/28 06:55:21;;;;;;;6.15;2.45;;;;;;;8.26;99.97;99184.97;4995608;28;97827;-42
2021/12/28 06:57:47;;;;;;;7.05;2.90;;;;;;;8.24;100.00;99176.16;4995527;28;96456;-42
2021/12/28 07:00:17;;;;;;;5.85;3.17;;;;;;;8.36;99.96;99201.28;4993674;28;96781;-42
2021/12/28 07:02:43;;;;;;;8.73;2.60;;;;;;;8.36;100.00;99202.16;4993390;28;101421;-42
2021/12/28 07:05:09;;;;;;;3.30;2.03;;;;;;;8.27;100.00;99175.91;4993754;28;101007;-42
2021/12/28 07:07:36;;;;;;;3.65;2.50;;;;;;;8.40;99.96;99211.75;4993960;28;96565;-42
2021/12/28 07:10:06;;;;;;;4.88;2.75;;;;;;;8.40;100.00;99194.72;4995479;28;96912;-42
2021/12/28 07:12:33;;;;;;;14.05;4.40;;;;;;;8.34;99.65;99170.88;4993739;28;102346;-42
2021/12/28 07:14:58;;;;;;;6.50;3.55;;;;;;;8.43;100.00;99176.44;4993860;28;101329;-42
2021/12/28 07:17:26;;;;;;;6.32;2.90;;;;;;;8.43;100.00;99181.81;4994821;28;117490;-42
2021/12/28 07:19:52;;;;;;;6.45;3.17;;;;;;;8.42;100.00;99168.47;4995322;28;96799;-42
2021/12/28 07:22:17;;;;;;;5.65;2.30;;;;;;;8.32;100.00;99162.03;4995029;28;98040;-42
2021/12/28 07:24:42;;;;;;;10.20;4.35;;;;;;;8.43;100.00;99184.53;4994917;28;99217;-42
2021/12/28 07:27:07;;;;;;;7.82;3.67;;;;;;;8.46;100.00;99176.22;4994124;28;117957;-42
2021/12/28 07:29:33;;;;;;;10.98;5.55;;;;;;;8.44;99.92;99183.56;4994267;28;105104;-42
2021/12/28 07:31:58;;;;;;;10.50;4.18;;;;;;;8.46;99.84;99187.00;4994805;28;99272;-42
2021/12/28 07:34:24;;;;;;;11.20;4.40;;;;;;;8.38;99.96;99170.50;4994474;28;101071;-42
2021/12/28 07:36:49;;;;;;;10.80;4.30;;;;;;;8.39;100.00;99166.84;4994013;28;116710;-42
2021/12/28 07:39:15;;;;;;;6.15;3.90;;;;;;;8.39;100.00;99161.47;4995106;28;96775;-41
2021/12/28 07:41:40;;;;;;;10.45;4.53;;;;;;;8.49;99.98;99175.97;4993425;28;100970;-42
2021/12/28 07:44:06;;;;;;;6.28;4.03;;;;;;;8.41;99.88;99150.56;4994354;28;122168;-42
2021/12/28 07:46:32;;;;;;;4.63;3.10;;;;;;;8.34;99.89;99139.34;4995059;28;96475;-42
2021/12/28 07:48:57;;;;;;;7.38;4.07;;;;;;;8.36;100.00;99133.84;4995121;28;96742;-42
2021/12/28 07:51:22;;;;;;;6.28;3.90;;;;;;;8.50;100.00;99158.78;4994035;28;97970;-42
2021/12/28 07:53:48;;;;;;;5.72;3.30;;;;;;;8.52;100.00;99171.31;4993522;28;97313;-42
2021/12/28 07:56:14;;;;;;;4.72;2.95;;;;;;;8.52;100.00;99168.59;4993317;28;96968;-42
2021/12/28 07:58:39;;;;;;;7.22;3.25;;;;;;;8.43;100.00;99137.81;4993541;28;96789;-42
2021/12/28 08:01:05;;;;;;;10.93;4.15;;;;;;;8.45;100.00;99139.41;4994062;28;99189;-42
2021/12/28 08:03:45;;;;;;;3.85;2.35;;;;;;;8.49;100.00;99146.28;4994297;28;99407;-42
2021/12/28 08:06:10;;;;;;;3.17;2.22;;;;;;;8.47;100.00;99145.53;4994775;28;96660;-42
2021/12/28 08:08:36;;;;;;;7.88;4.00;;;;;;;8.44;100.00;99134.16;4995340;28;96782;-42
2021/12/28 08:11:01;;;;;;;7.00;3.38;;;;;;;8.57;100.00;99150.19;4994422;28;97883;-42
2021/12/28 08:13:27;;;;;;;4.75;2.88;;;;;;;8.57;100.00;99151.03;4994349;28;99350;-42
2021/12/28 08:15:52;;;;;;;6.25;3.65;;;;;;;8.48;100.00;99138.28;4993944;28;96788;-42
2021/12/28 08:18:18;;;;;;;6.05;3.67;;;;;;;8.48;100.00;99127.50;4994563;28;96602;-42
2021/12/28 08:20:43;;;;;;;5.18;3.25;;;;;;;8.50;100.00;99131.78;4994071;28;98936;-42
2021/12/28 08:23:09;;;;;;;6.82;3.20;;;;;;;8.60;100.00;99145.38;4994247;28;97862;-42
2021/12/28 08:25:34;;;;;;;7.85;3.53;;;;;;;8.59;100.00;99143.69;4994410;28;96460;-42
2021/12/28 08:28:04;;;;;;;6.95;3.85;;;;;;;8.60;100.00;99134.59;4993067;28;96798;-42
2021/12/28 08:30:31;;;;;;;6.88;3.17;;;;;;;8.61;100.00;99130.94;4992775;28;101439;-42
2021/12/28 08:32:56;;;;;;;6.85;3.78;;;;;;;8.66;100.00;99133.25;4992939;28;100797;-42
2021/12/28 08:35:21;;;;;;;6.32;3.55;;;;;;;8.65;100.00;99131.53;4993776;28;109849;-42
2021/12/28 08:37:47;;;;;;;6.43;3.47;;;;;;;8.68;100.00;99142.09;4994652;28;96804;-42
2021/12/28 08:40:17;;;;;;;5.05;2.55;;;;;;;8.58;100.00;99112.31;4992014;28;100907;-42
2021/12/28 08:42:42;;;;;;;10.20;4.55;;;;;;;8.64;100.00;99124.44;4996026;28;97273;-42
2021/12/28 08:45:09;;;;;;;6.47;2.83;;;;;;;8.62;100.00;99116.44;4997570;28;96781;-42
2021/12/28 08:47:34;;;;;;;6.57;3.55;;;;;;;8.64;100.00;99116.31;4995962;28;96829;-42
2021/12/28 08:50:00;;;;;;;7.75;3.88;;;;;;;8.72;100.00;99116.53;4997459;28;97968;-42
2021/12/28 08:52:26;;;;;;;16.02;4.95;;;;;;;8.80;100.00;99121.34;4997477;28;97745;-42
2021/12/28 08:54:51;;;;;;;7.72;3.70;;;;;;;8.84;100.00;99125.47;4997583;28;96591;-42
2021/12/28 08:57:18;;;;;;;8.07;5.07;;;;;;;8.70;100.00;99100.50;4996248;28;96979;-42
2021/12/28 08:59:44;;;;;;;8.27;3.03;;;;;;;8.73;100.00;99088.59;4996432;28;99854;-42
2021/12/28 09:02:10;;;;;;;6.80;3.50;;;;;;;8.70;99.91;99089.69;4995406;28;100937;-42
2021/12/28 09:04:39;;;;;;;5.38;3.03;;;;;;;8.79;99.88;99087.22;4996898;28;96689;-42
2021/12/28 09:07:05;;;;;;;8.70;3.42;;;;;;;8.92;99.87;99109.53;4995985;28;96779;-42
2021/12/28 09:09:30;;;;;;;6.82;3.83;;;;;;;8.92;100.00;99102.28;4995552;28;101009;-42
2021/12/28 09:11:55;;;;;;;7.07;3.70;;;;;;;8.84;99.86;99077.78;4996202;28;126839;-42
2021/12/28 09:14:21;;;;;;;6.18;3.40;;;;;;;8.89;100.00;99086.34;4996288;28;114086;-42
2021/12/28 09:16:46;;;;;;;6.03;3.15;;;;;;;8.87;100.00;99072.09;4996622;28;109989;-42
2021/12/28 09:19:11;;;;;;;9.05;3.20;;;;;;;8.97;99.89;99083.00;4996977;28;98093;-42
2021/12/28 09:21:37;;;;;;;5.63;3.55;;;;;;;8.99;99.81;99093.69;4996661;28;126651;-42
2021/12/28 09:24:03;;;;;;;5.72;3.67;;;;;;;8.98;99.80;99084.69;4997123;28;96543;-42
2021/12/28 09:26:28;;;;;;;8.82;3.63;;;;;;;9.00;99.82;99081.88;4997341;28;96839;-42
2021/12/28 09:28:53;;;;;;;5.70;2.97;;;;;;;8.98;99.83;99078.44;4995626;28;111733;-42
2021/12/28 09:31:18;;;;;;;6.03;2.80;;;;;;;8.95;99.84;99068.75;4995760;28;119362;-42
2021/12/28 09:33:44;;;;;;;6.18;3.22;;;;;;;8.99;99.65;99072.06;4997093;28;96593;-42
2021/12/28 09:36:14;;;;;;;6.72;4.03;;;;;;;9.04;99.47;99076.09;4997060;28;96611;-42
2021/12/28 09:38:39;;;;;;;3.83;2.55;;;;;;;9.04;99.51;99078.78;4995210;28;101128;-42
2021/12/28 09:41:05;;;;;;;3.72;2.20;;;;;;;9.07;99.44;99083.06;4996931;28;97339;-42
2021/12/28 09:43:30;;;;;;;6.45;2.70;;;;;;;8.96;99.34;99059.66;4996927;28;98267;-42
2021/12/28 09:45:55;;;;;;;2.58;1.27;;;;;;;9.07;99.31;99070.44;4996609;28;96822;-42
2021/12/28 09:48:21;;;;;;;4.00;2.00;;;;;;;9.10;99.29;99072.00;4996280;28;101918;-42
2021/12/28 09:50:46;;;;;;;3.80;1.88;;;;;;;9.12;99.12;99070.03;4995794;28;116717;-42
2021/12/28 09:53:14;;;;;;;3.75;1.70;;;;;;;9.13;99.29;99072.63;4995012;28;113481;-42
2021/12/28 09:55:41;;;;;;;2.40;1.25;;;;;;;9.15;98.89;99064.38;4994920;28;96853;-42
2021/12/28 09:58:08;;;;;;;2.45;1.55;;;;;;;9.06;98.78;99049.81;4994792;28;100855;-42
2021/12/28 10:00:34;;;;;;;2.25;1.20;;;;;;;9.17;98.78;99057.00;4993945;28;100844;-42
2021/12/28 10:02:59;;;;;;;1.48;1.08;;;;;;;9.10;98.58;99056.66;4995882;28;99236;-42
2021/12/28 10:05:26;;;;;;;0.90;0.77;;;;;;;9.17;98.74;99064.25;4996502;28;96711;-42
2021/12/28 10:07:58;;;;;;;3.33;1.20;;;;;;;9.15;98.89;99056.25;4994775;28;101359;-42
2021/12/28 10:10:29;;;;;;;0.95;0.75;;;;;;;9.14;98.91;99063.53;4995149;28;101131;-42
2021/12/28 10:12:57;;;;;;;2.33;1.42;;;;;;;9.13;99.24;99047.47;4994750;28;96619;-42
2021/12/28 10:15:25;;;;;;;4.45;2.22;;;;;;;9.12;99.21;99046.59;4994928;28;96801;-42
2021/12/28 10:17:55;;;;;;;3.65;1.67;;;;;;;9.10;99.14;99026.09;4995604;28;97820;-42
2021/12/28 10:20:35;;;;;;;3.58;1.52;;;;;;;8.97;99.13;99014.63;4994418;28;99885;-42
2021/12/28 10:23:03;;;;;;;2.83;1.30;;;;;;;9.08;99.23;99028.06;4994659;28;96603;-42
2021/12/28 10:25:32;;;;;;;3.53;1.88;;;;;;;9.15;99.08;99026.56;4994502;28;96891;-42
2021/12/28 10:28:04;;;;;;;2.22;1.10;;;;;;;9.13;99.02;99039.38;4994371;28;100770;-42
2021/12/28 10:30:37;;;;;;;1.95;1.20;;;;;;;9.13;98.92;99028.56;4994254;28;100914;-42
2021/12/28 10:33:12;;;;;;;2.17;1.33;;;;;;;9.06;98.55;99012.00;4994627;28;97070;-42
2021/12/28 10:35:46;;;;;;;2.38;1.33;;;;;;;9.08;98.67;99009.16;4994954;28;96639;-42
2021/12/28 10:38:16;;;;;;;0.52;0.52;;;;;;;9.19;98.55;99021.75;4994188;28;100767;-42
2021/12/28 10:41:05;;;;;;;2.10;1.35;;;;;;;9.16;98.38;99017.47;4994135;28;103781;-42
2021/12/28 10:43:34;;;;;;;2.95;1.25;;;;;;;9.19;98.42;99017.22;4993981;28;96750;-42
2021/12/28 10:46:02;;;;;;;1.45;0.82;;;;;;;9.18;98.30;99014.66;4995668;28;96747;-42
2021/12/28 10:48:41;;;;;;;3.78;1.15;;;;;;;9.07;98.15;99002.06;4993721;28;100771;-42
2021/12/28 10:51:13;;;;;;;1.17;0.68;;;;;;;9.18;98.06;99015.50;4995636;28;98051;-42
2021/12/28 10:53:59;;;;;;;1.65;0.98;;;;;;;9.03;98.12;98993.34;4995618;28;96541;-42
2021/12/28 10:56:26;;;;;;;2.63;1.30;;;;;;;9.09;98.13;98997.38;4993978;28;96709;-42
2021/12/28 10:58:52;;;;;;;1.55;0.60;;;;;;;9.14;98.19;99003.25;4993829;28;101476;-42
2021/12/28 11:01:23;;;;;;;0.60;0.60;;;;;;;9.03;98.04;98987.94;4995222;28;97860;-42
2021/12/28 11:03:52;;;;;;;1.05;0.50;;;;;;;9.05;98.39;98990.53;4993766;28;96609;-42
2021/12/28 11:06:20;;;;;;;1.63;0.73;;;;;;;8.95;98.42;98976.94;4977242;28;96880;-42
2021/12/28 11:08:48;;;;;;;2.50;1.20;;;;;;;8.98;98.58;98967.72;4994750;28;97872;-42
2021/12/28 11:11:24;;;;;;;0.93;0.70;;;;;;;9.03;98.46;98979.00;4993717;28;99813;-42
2021/12/28 11:13:57;;;;;;;2.67;0.60;;;;;;;9.02;98.54;98980.84;4993964;28;96664;-42
2021/12/28 11:16:26;;;;;;;1.95;1.15;;;;;;;8.85;98.73;98949.03;4993995;28;96669;-42
2021/12/28 11:19:00;;;;;;;5.18;1.10;;;;;;;8.97;98.79;98960.63;4993768;28;98783;-42
2021/12/28 11:21:47;;;;;;;1.50;0.68;;;;;;;9.02;98.78;98969.19;4993738;28;100733;-41
2021/12/28 11:24:15;;;;;;;0.63;0.60;;;;;;;8.96;98.91;98951.66;4994036;28;96982;-42
2021/12/28 11:26:43;;;;;;;0.63;0.55;;;;;;;9.00;99.17;98963.91;4995512;28;96803;-41
2021/12/28 11:29:11;;;;;;;1.13;0.73;;;;;;;9.00;99.10;98963.06;4993364;28;104174;-42
2021/12/28 11:31:52;;;;;;;1.00;0.90;;;;;;;9.00;99.16;98969.31;4993440;28;100807;-42
2021/12/28 11:34:28;;;;;;;1.17;0.68;;;;;;;8.93;99.05;98958.16;4994821;28;96601;-42
2021/12/28 11:37:00;;;;;;;1.27;0.95;;;;;;;8.93;99.03;98951.91;4993696;28;96749;-42
2021/12/28 11:39:34;;;;;;;0.90;0.65;;;;;;;8.92;98.85;98959.16;4993539;28;100795;-42